Time;durP1;ratioP1;P1;durP2;ratioP2;P2;SDS_P1;SDS_P2;PMS_P1;PMS_P2;Temp;Humidity;BMP_temperature;BMP_pressure;BME280_temperature;BME280_humidity;BME280_pressure;Samples;Min_cycle;Max_cycle;Signal;HPM_P1;HPM_P2
2022/03/09 00:02:26;;;;;;;13.05;11.93;;;3.70;44.60;;;;;;5072641;28;20215;-57
2022/03/09 00:04:53;;;;;;;14.30;12.65;;;3.80;45.00;;;;;;5072353;28;20239;-57
2022/03/09 00:07:21;;;;;;;13.63;12.23;;;3.80;44.40;;;;;;5071144;28;20224;-57
2022/03/09 00:09:48;;;;;;;12.60;11.23;;;3.80;44.80;;;;;;5072575;28;20287;-57
2022/03/09 00:12:15;;;;;;;14.23;12.77;;;3.90;44.90;;;;;;5072323;28;20255;-57
2022/03/09 00:14:42;;;;;;;13.07;11.77;;;3.90;44.30;;;;;;5072293;28;20291;-57
2022/03/09 00:17:15;;;;;;;13.10;11.90;;;4.00;44.70;;;;;;5072423;28;20705;-59
2022/03/09 00:19:43;;;;;;;12.30;11.13;;;4.00;44.50;;;;;;5072536;28;20625;-57
2022/03/09 00:22:09;;;;;;;12.75;11.50;;;3.90;44.10;;;;;;5071181;28;20205;-57
2022/03/09 00:24:38;;;;;;;13.27;12.07;;;4.00;44.00;;;;;;5072344;28;20222;-57
2022/03/09 00:27:05;;;;;;;13.63;12.38;;;4.00;44.00;;;;;;5072300;28;20215;-57
2022/03/09 00:29:31;;;;;;;12.98;10.85;;;4.00;44.20;;;;;;5084533;28;20268;-57
2022/03/09 00:31:58;;;;;;;11.90;10.80;;;4.00;43.90;;;;;;5092685;28;20291;-57
2022/03/09 00:34:25;;;;;;;11.57;10.40;;;4.10;44.50;;;;;;5092472;28;20243;-57
2022/03/09 00:36:52;;;;;;;13.25;11.82;;;4.10;44.30;;;;;;5092993;28;20210;-57
2022/03/09 00:39:19;;;;;;;12.20;10.95;;;4.20;44.30;;;;;;5096048;28;20206;-57
2022/03/09 00:41:47;;;;;;;11.45;10.50;;;4.10;44.70;;;;;;5096116;28;20662;-57
2022/03/09 00:44:14;;;;;;;11.85;10.80;;;4.20;44.30;;;;;;5096055;28;20236;-57
2022/03/09 00:46:41;;;;;;;11.45;10.35;;;4.20;43.80;;;;;;5096104;28;20199;-57
2022/03/09 00:49:08;;;;;;;10.70;9.73;;;4.30;44.10;;;;;;5095956;28;20230;-58
2022/03/09 00:51:35;;;;;;;12.48;10.90;;;4.30;43.80;;;;;;5094593;28;20206;-57
2022/03/09 00:54:01;;;;;;;11.50;10.45;;;4.30;43.70;;;;;;5095773;28;20207;-57
2022/03/09 00:56:28;;;;;;;10.50;9.68;;;4.30;44.20;;;;;;5095926;28;20200;-57
2022/03/09 00:58:56;;;;;;;12.25;10.32;;;4.30;44.10;;;;;;5095712;28;20208;-57
2022/03/09 01:01:23;;;;;;;11.48;10.40;;;4.20;44.20;;;;;;5095828;28;20287;-57
2022/03/09 01:03:50;;;;;;;11.02;9.95;;;4.30;44.00;;;;;;5095490;28;20238;-57
2022/03/09 01:06:17;;;;;;;11.23;10.25;;;4.30;44.00;;;;;;5094324;28;20315;-57
2022/03/09 01:08:44;;;;;;;11.18;10.13;;;4.30;44.00;;;;;;5095534;28;20223;-57
2022/03/09 01:11:11;;;;;;;10.73;9.75;;;4.20;44.10;;;;;;5095556;28;20720;-57
2022/03/09 01:13:38;;;;;;;11.98;10.77;;;4.20;44.30;;;;;;5095433;28;20206;-58
2022/03/09 01:16:07;;;;;;;11.45;10.00;;;4.20;44.40;;;;;;5095524;28;20204;-57
2022/03/09 01:18:34;;;;;;;10.75;9.85;;;4.10;45.00;;;;;;5095425;28;20685;-57
2022/03/09 01:21:00;;;;;;;12.30;9.95;;;4.00;44.70;;;;;;5094027;28;20283;-57
2022/03/09 01:23:27;;;;;;;11.73;9.57;;;4.00;44.90;;;;;;5095384;28;20666;-57
2022/03/09 01:25:54;;;;;;;11.35;10.18;;;4.00;44.60;;;;;;5095354;28;20291;-57
2022/03/09 01:28:21;;;;;;;11.07;10.13;;;4.00;44.90;;;;;;5094982;28;20314;-58
2022/03/09 01:30:48;;;;;;;10.35;9.32;;;4.00;44.70;;;;;;5095196;28;20211;-57
2022/03/09 01:33:16;;;;;;;10.65;9.77;;;4.00;44.90;;;;;;5095255;28;20295;-57
2022/03/09 01:35:43;;;;;;;10.60;9.70;;;4.10;44.60;;;;;;5094987;28;20560;-57
2022/03/09 01:38:10;;;;;;;10.90;9.80;;;4.20;44.50;;;;;;5093931;28;21150;-57
2022/03/09 01:40:37;;;;;;;10.75;9.73;;;4.20;44.30;;;;;;5095072;28;20206;-57
2022/03/09 01:43:04;;;;;;;10.60;9.80;;;4.30;44.30;;;;;;5094996;28;20246;-58
2022/03/09 01:45:31;;;;;;;10.65;9.73;;;4.30;44.60;;;;;;5094860;28;20210;-57
2022/03/09 01:47:58;;;;;;;11.23;10.23;;;4.20;44.10;;;;;;5093910;28;20207;-57
2022/03/09 01:50:26;;;;;;;11.15;10.13;;;4.30;44.30;;;;;;5094805;28;20325;-57
2022/03/09 01:52:53;;;;;;;10.93;9.90;;;4.20;44.50;;;;;;5093486;28;20222;-57
2022/03/09 01:55:20;;;;;;;11.30;10.30;;;4.20;44.20;;;;;;5094709;28;20651;-57
2022/03/09 01:57:46;;;;;;;11.35;10.35;;;4.20;44.30;;;;;;5094688;28;20684;-57
2022/03/09 02:00:14;;;;;;;11.10;10.10;;;4.20;44.70;;;;;;5094496;28;20304;-57
2022/03/09 02:02:41;;;;;;;10.88;9.88;;;4.10;44.30;;;;;;5094555;28;20232;-58
2022/03/09 02:05:09;;;;;;;11.57;10.50;;;4.20;44.20;;;;;;5094431;28;20292;-57
2022/03/09 02:10:24;;;;;;;12.00;10.75;;;4.20;44.20;;;;;;5094352;28;20779;-57
2022/03/09 02:12:51;;;;;;;12.85;11.05;;;4.10;44.60;;;;;;5094462;28;20634;-57
2022/03/09 02:15:18;;;;;;;12.10;10.25;;;4.10;44.20;;;;;;5094139;28;20295;-57
2022/03/09 02:17:45;;;;;;;11.55;10.38;;;4.10;44.10;;;;;;5094374;28;20671;-58
2022/03/09 02:20:12;;;;;;;11.40;10.43;;;4.00;44.20;;;;;;5094217;28;20214;-58
2022/03/09 02:22:41;;;;;;;11.73;10.52;;;4.00;44.60;;;;;;5092875;28;20203;-57
2022/03/09 02:25:11;;;;;;;11.95;10.75;;;4.00;44.40;;;;;;5094122;28;20208;-57
2022/03/09 02:27:38;;;;;;;10.65;9.80;;;3.90;44.90;;;;;;5094132;28;20298;-58
2022/03/09 02:30:07;;;;;;;11.20;10.23;;;3.90;44.60;;;;;;5093725;28;20758;-57
2022/03/09 02:32:34;;;;;;;12.73;10.90;;;3.90;45.00;;;;;;5093965;28;20239;-57
2022/03/09 02:35:01;;;;;;;11.93;10.73;;;3.90;45.00;;;;;;5094101;28;20299;-57
2022/03/09 02:37:28;;;;;;;11.73;10.52;;;3.90;45.30;;;;;;5092731;28;20595;-57
2022/03/09 02:39:56;;;;;;;12.63;11.13;;;3.90;44.90;;;;;;5094025;28;20256;-57
2022/03/09 02:42:23;;;;;;;10.88;9.77;;;3.90;44.90;;;;;;5093874;28;20283;-57
2022/03/09 02:44:50;;;;;;;11.88;10.88;;;3.90;45.30;;;;;;5093655;28;20239;-57
2022/03/09 02:47:17;;;;;;;11.10;10.15;;;3.80;45.80;;;;;;5093778;28;20694;-57
2022/03/09 02:49:44;;;;;;;11.73;10.48;;;3.80;45.70;;;;;;5093600;28;20274;-57
2022/03/09 02:52:11;;;;;;;11.55;10.45;;;3.80;45.20;;;;;;5092369;28;20717;-57
2022/03/09 02:54:37;;;;;;;11.07;10.13;;;3.80;45.70;;;;;;5093630;28;20290;-57
2022/03/09 02:57:07;;;;;;;11.35;10.30;;;3.90;45.30;;;;;;5093487;28;20212;-57
2022/03/09 02:59:35;;;;;;;11.77;10.65;;;3.90;45.40;;;;;;5093140;28;20204;-57
2022/03/09 03:02:02;;;;;;;11.75;10.75;;;3.90;45.40;;;;;;5093572;28;20253;-57
2022/03/09 03:04:29;;;;;;;13.15;10.35;;;3.90;45.40;;;;;;5093406;28;20240;-57
2022/03/09 03:06:56;;;;;;;11.55;10.18;;;3.80;45.90;;;;;;5092173;28;20267;-57
2022/03/09 03:09:22;;;;;;;11.85;10.82;;;3.60;46.00;;;;;;5093254;28;20585;-57
2022/03/09 03:11:49;;;;;;;12.70;11.52;;;3.60;45.70;;;;;;5093281;28;20224;-57
2022/03/09 03:14:17;;;;;;;11.90;10.90;;;3.60;45.70;;;;;;5093335;28;20290;-57
2022/03/09 03:16:44;;;;;;;11.65;10.60;;;3.60;45.90;;;;;;5093265;28;20635;-57
2022/03/09 03:19:11;;;;;;;11.50;10.55;;;3.60;45.50;;;;;;5093384;28;20210;-57
2022/03/09 03:21:38;;;;;;;11.88;10.57;;;3.60;45.60;;;;;;5091914;28;20204;-57
2022/03/09 03:24:05;;;;;;;12.32;11.13;;;3.60;46.10;;;;;;5093063;28;20227;-57
2022/03/09 03:26:32;;;;;;;12.27;11.18;;;3.60;46.30;;;;;;5093183;28;20196;-57
2022/03/09 03:28:59;;;;;;;12.10;10.90;;;3.60;45.70;;;;;;5092941;28;20277;-59
2022/03/09 03:31:29;;;;;;;13.85;12.30;;;3.40;45.90;;;;;;5093131;28;20211;-59
2022/03/09 03:33:56;;;;;;;14.57;11.30;;;3.30;45.70;;;;;;5092953;28;20257;-59
2022/03/09 03:36:23;;;;;;;13.18;11.90;;;3.20;46.00;;;;;;5091805;28;20561;-59
2022/03/09 03:38:50;;;;;;;11.93;10.82;;;3.00;47.70;;;;;;5092925;28;20286;-59
2022/03/09 03:41:17;;;;;;;12.57;11.38;;;2.90;47.90;;;;;;5093086;28;20200;-59
2022/03/09 03:43:43;;;;;;;11.65;10.65;;;2.90;47.80;;;;;;5092824;28;20210;-59
2022/03/09 03:46:10;;;;;;;12.32;11.23;;;2.80;48.30;;;;;;5092965;28;20225;-59
2022/03/09 03:48:38;;;;;;;12.48;11.18;;;2.70;48.90;;;;;;5092821;28;20545;-59
2022/03/09 03:51:05;;;;;;;13.45;12.05;;;2.60;48.50;;;;;;5091556;28;20200;-59
2022/03/09 03:53:32;;;;;;;14.23;12.45;;;2.60;48.30;;;;;;5092847;28;20235;-59
2022/03/09 03:55:59;;;;;;;12.15;10.95;;;2.70;48.50;;;;;;5092849;28;20283;-59
2022/03/09 03:58:26;;;;;;;12.98;11.75;;;2.60;48.50;;;;;;5092698;28;20571;-59
2022/03/09 04:00:53;;;;;;;13.55;11.07;;;2.50;48.70;;;;;;5092534;28;20650;-59
2022/03/09 04:03:20;;;;;;;12.35;11.15;;;2.30;50.40;;;;;;5092646;28;20211;-59
2022/03/09 04:05:48;;;;;;;12.52;10.70;;;2.20;50.20;;;;;;5092636;28;20200;-59
2022/03/09 04:08:15;;;;;;;14.50;13.10;;;2.10;49.80;;;;;;5091466;28;20272;-59
2022/03/09 04:10:42;;;;;;;13.85;12.45;;;2.30;49.10;;;;;;5092538;28;20786;-59
2022/03/09 04:13:09;;;;;;;12.27;10.98;;;2.30;49.20;;;;;;5096757;28;20204;-59
2022/03/09 04:15:35;;;;;;;13.82;11.40;;;2.30;49.40;;;;;;5096652;28;20235;-59
2022/03/09 04:18:02;;;;;;;10.60;9.02;;;2.40;49.10;;;;;;5096663;28;20208;-58
2022/03/09 04:20:29;;;;;;;12.43;11.13;;;2.50;49.20;;;;;;5096517;28;20204;-58
2022/03/09 04:22:57;;;;;;;11.88;10.68;;;2.60;48.60;;;;;;5095272;28;20210;-59
2022/03/09 04:25:26;;;;;;;13.48;12.15;;;2.70;48.30;;;;;;5096566;28;20719;-57
2022/03/09 04:27:53;;;;;;;14.85;13.25;;;2.70;48.60;;;;;;5096457;28;20659;-59
2022/03/09 04:30:20;;;;;;;14.45;13.05;;;2.70;48.30;;;;;;5096103;28;20236;-59
2022/03/09 04:32:47;;;;;;;12.43;11.32;;;2.70;48.40;;;;;;5096327;28;20206;-59
2022/03/09 04:35:14;;;;;;;11.73;10.63;;;2.70;48.40;;;;;;5096169;28;20755;-59
2022/03/09 04:37:41;;;;;;;14.18;12.77;;;2.60;48.60;;;;;;5094967;28;20200;-59
2022/03/09 04:40:10;;;;;;;11.18;9.57;;;2.60;48.60;;;;;;5096315;28;20294;-59
2022/03/09 04:42:37;;;;;;;14.25;10.68;;;2.60;48.60;;;;;;5096160;28;20200;-59
2022/03/09 04:45:05;;;;;;;13.98;12.68;;;2.50;48.90;;;;;;5095999;28;20677;-59
2022/03/09 04:47:31;;;;;;;14.20;11.35;;;2.40;49.50;;;;;;5095901;28;20204;-59
2022/03/09 04:49:58;;;;;;;13.55;11.60;;;2.20;49.90;;;;;;5096021;28;20243;-59
2022/03/09 04:52:25;;;;;;;14.90;10.70;;;2.10;50.30;;;;;;5094765;28;20204;-60
2022/03/09 04:54:52;;;;;;;21.58;12.40;;;2.00;50.80;;;;;;5095973;28;20282;-60
2022/03/09 04:57:20;;;;;;;12.60;11.30;;;1.80;51.20;;;;;;5095967;28;20200;-60
2022/03/09 04:59:47;;;;;;;15.02;12.73;;;1.70;51.50;;;;;;5095627;28;20204;-60
2022/03/09 05:02:14;;;;;;;12.43;9.00;;;1.60;51.80;;;;;;5095717;28;20200;-60
2022/03/09 05:04:41;;;;;;;14.57;13.07;;;1.50;52.30;;;;;;5095662;28;20278;-59
2022/03/09 05:07:07;;;;;;;15.77;12.40;;;1.40;52.50;;;;;;5094459;28;20226;-60
2022/03/09 05:09:34;;;;;;;13.63;10.82;;;1.30;52.70;;;;;;5095497;28;20360;-59
2022/03/09 05:12:02;;;;;;;13.95;12.55;;;1.30;53.10;;;;;;5095652;28;20203;-59
2022/03/09 05:14:30;;;;;;;12.75;11.35;;;1.20;53.30;;;;;;5095443;28;20223;-60
2022/03/09 05:16:57;;;;;;;14.05;11.68;;;1.10;53.80;;;;;;5095598;28;20243;-60
2022/03/09 05:19:24;;;;;;;13.43;11.60;;;1.10;53.90;;;;;;5095439;28;20265;-58
2022/03/09 05:21:50;;;;;;;12.88;11.18;;;1.10;53.90;;;;;;5094113;28;20200;-60
2022/03/09 05:24:17;;;;;;;15.18;10.82;;;1.10;53.80;;;;;;5095325;28;20242;-60
2022/03/09 05:26:46;;;;;;;12.82;11.43;;;1.10;53.80;;;;;;5095207;28;20562;-59
2022/03/09 05:29:13;;;;;;;11.32;9.60;;;1.20;53.30;;;;;;5094831;28;20701;-57
2022/03/09 05:31:41;;;;;;;13.00;11.30;;;1.20;53.30;;;;;;5095269;28;20284;-57
2022/03/09 05:34:08;;;;;;;13.40;11.45;;;1.30;53.20;;;;;;5095186;28;20291;-57
2022/03/09 05:36:35;;;;;;;15.95;11.68;;;1.40;53.60;;;;;;5093844;28;20230;-59
2022/03/09 05:39:02;;;;;;;11.80;9.98;;;1.40;54.10;;;;;;5095131;28;20282;-60
2022/03/09 05:41:29;;;;;;;14.85;11.20;;;1.30;54.00;;;;;;5095101;28;20228;-57
2022/03/09 05:43:57;;;;;;;13.90;12.63;;;1.30;53.50;;;;;;5094764;28;20287;-59
2022/03/09 05:46:24;;;;;;;12.15;10.93;;;1.30;53.80;;;;;;5094915;28;20236;-60
2022/03/09 05:48:52;;;;;;;14.70;11.60;;;1.30;53.20;;;;;;5094835;28;20635;-57
2022/03/09 05:51:19;;;;;;;13.45;11.65;;;1.40;53.40;;;;;;5093584;28;20594;-60
2022/03/09 05:53:46;;;;;;;13.32;9.95;;;1.40;53.10;;;;;;5094808;28;20654;-58
2022/03/09 05:56:12;;;;;;;13.30;11.70;;;1.40;53.10;;;;;;5094772;28;20282;-57
2022/03/09 05:58:39;;;;;;;11.48;10.32;;;1.40;53.30;;;;;;5094472;28;20283;-60
2022/03/09 06:01:06;;;;;;;11.90;10.65;;;1.40;53.10;;;;;;5094501;28;20303;-60
2022/03/09 06:03:33;;;;;;;13.88;12.50;;;1.40;53.20;;;;;;5094442;28;20231;-59
2022/03/09 06:06:01;;;;;;;16.48;13.23;;;1.30;53.50;;;;;;5093653;28;20246;-59
2022/03/09 06:08:28;;;;;;;10.20;9.20;;;1.20;53.80;;;;;;5094398;28;20265;-59
2022/03/09 06:10:55;;;;;;;13.73;10.10;;;1.10;54.10;;;;;;5094287;28;20323;-59
2022/03/09 06:13:22;;;;;;;16.17;13.52;;;1.00;54.50;;;;;;5094298;28;20257;-59
2022/03/09 06:15:49;;;;;;;11.77;9.88;;;0.90;55.00;;;;;;5094165;28;20203;-60
2022/03/09 06:18:16;;;;;;;13.07;11.77;;;0.90;55.10;;;;;;5094271;28;20200;-59
2022/03/09 06:20:43;;;;;;;13.68;11.52;;;0.90;54.70;;;;;;5094160;28;20302;-60
2022/03/09 06:23:11;;;;;;;15.30;12.55;;;1.00;54.70;;;;;;5092947;28;20294;-59
2022/03/09 06:25:38;;;;;;;14.20;12.80;;;1.00;54.70;;;;;;5093951;28;20286;-59
2022/03/09 06:28:06;;;;;;;14.88;13.38;;;1.10;54.90;;;;;;5094143;28;20283;-59
2022/03/09 06:30:33;;;;;;;17.92;10.50;;;1.00;55.00;;;;;;5093865;28;20227;-58
2022/03/09 06:33:00;;;;;;;13.02;11.13;;;0.90;55.90;;;;;;5093916;28;20239;-61
2022/03/09 06:35:27;;;;;;;13.90;12.60;;;0.80;56.30;;;;;;5093414;28;20614;-58
2022/03/09 06:37:54;;;;;;;14.55;13.05;;;0.80;56.10;;;;;;5092607;28;20577;-58
2022/03/09 06:40:22;;;;;;;15.48;12.43;;;0.70;56.50;;;;;;5093778;28;20307;-58
2022/03/09 06:42:49;;;;;;;13.13;11.40;;;0.80;56.00;;;;;;5093713;28;20200;-59
2022/03/09 06:45:16;;;;;;;13.55;10.32;;;0.90;55.80;;;;;;5093692;28;20251;-59
2022/03/09 06:47:43;;;;;;;14.68;12.63;;;1.00;55.10;;;;;;5093618;28;20290;-58
2022/03/09 06:50:11;;;;;;;15.18;10.25;;;1.20;54.80;;;;;;5093482;28;20234;-59
2022/03/09 06:52:38;;;;;;;14.27;12.05;;;1.20;54.50;;;;;;5092442;28;20210;-59
2022/03/09 06:55:08;;;;;;;14.40;12.63;;;1.30;54.50;;;;;;5093524;28;20260;-59
2022/03/09 06:57:37;;;;;;;15.23;13.50;;;1.30;54.50;;;;;;5093529;28;20208;-59
2022/03/09 07:00:06;;;;;;;13.52;10.35;;;1.30;54.50;;;;;;5093070;28;20746;-59
2022/03/09 07:02:33;;;;;;;14.23;12.88;;;1.30;54.50;;;;;;5093499;28;20199;-59
2022/03/09 07:05:00;;;;;;;15.77;12.20;;;1.20;54.60;;;;;;5093024;28;20239;-59
2022/03/09 07:07:27;;;;;;;18.98;13.77;;;1.30;54.60;;;;;;5092042;28;20287;-59
2022/03/09 07:09:54;;;;;;;13.70;12.30;;;1.30;54.70;;;;;;5093093;28;20231;-59
2022/03/09 07:12:21;;;;;;;16.48;12.10;;;1.30;54.60;;;;;;5093109;28;20738;-58
2022/03/09 07:14:49;;;;;;;15.35;13.60;;;1.40;54.40;;;;;;5093090;28;20210;-59
2022/03/09 07:17:16;;;;;;;14.30;11.45;;;1.50;54.30;;;;;;5093207;28;20204;-59
2022/03/09 07:19:43;;;;;;;12.88;9.90;;;1.70;53.90;;;;;;5093124;28;20203;-58
2022/03/09 07:22:10;;;;;;;14.00;12.60;;;1.80;53.70;;;;;;5091741;28;20207;-58
2022/03/09 07:24:37;;;;;;;15.52;11.73;;;1.90;53.40;;;;;;5093015;28;20265;-59
2022/03/09 07:27:05;;;;;;;13.73;12.18;;;1.90;53.10;;;;;;5093055;28;20210;-59
2022/03/09 07:29:32;;;;;;;14.85;13.00;;;2.00;52.70;;;;;;5092836;28;20211;-59
2022/03/09 07:32:00;;;;;;;14.95;11.13;;;2.10;52.40;;;;;;5092993;28;20728;-59
2022/03/09 07:34:27;;;;;;;18.50;12.70;;;2.10;52.40;;;;;;5092819;28;20231;-58
2022/03/09 07:36:57;;;;;;;16.23;13.60;;;2.10;52.50;;;;;;5091731;28;20214;-58
2022/03/09 07:39:26;;;;;;;16.45;13.63;;;2.10;52.50;;;;;;5092928;28;20212;-59
2022/03/09 07:41:53;;;;;;;15.63;14.05;;;2.10;52.20;;;;;;5092861;28;20654;-59
2022/03/09 07:44:20;;;;;;;13.30;10.40;;;2.10;52.40;;;;;;5092640;28;20234;-60
2022/03/09 07:46:47;;;;;;;15.45;12.85;;;2.20;52.50;;;;;;5091921;28;20200;-59
2022/03/09 07:49:15;;;;;;;13.23;11.90;;;2.20;52.60;;;;;;5092679;28;20294;-59
2022/03/09 07:51:42;;;;;;;14.35;12.95;;;2.30;52.70;;;;;;5091436;28;20232;-59
2022/03/09 07:54:09;;;;;;;14.82;12.90;;;2.40;52.70;;;;;;5092708;28;20295;-59
2022/03/09 07:56:36;;;;;;;17.10;13.30;;;2.50;52.80;;;;;;5092745;28;20295;-59
2022/03/09 07:59:03;;;;;;;17.60;12.90;;;2.70;52.40;;;;;;5092517;28;20294;-59
2022/03/09 08:01:30;;;;;;;14.52;12.65;;;2.80;52.70;;;;;;5092398;28;20567;-58
2022/03/09 08:03:57;;;;;;;16.92;14.60;;;2.80;52.00;;;;;;5092572;28;20665;-58
2022/03/09 08:06:25;;;;;;;17.48;14.35;;;2.70;52.00;;;;;;5091307;28;20731;-59
2022/03/09 08:08:52;;;;;;;15.40;11.25;;;2.60;52.40;;;;;;5092523;28;20216;-59
2022/03/09 08:11:19;;;;;;;16.55;14.07;;;2.70;52.50;;;;;;5092322;28;20652;-59
2022/03/09 08:13:46;;;;;;;13.93;12.63;;;2.80;52.30;;;;;;5092496;28;20631;-59
2022/03/09 08:16:12;;;;;;;25.42;13.88;;;2.80;52.30;;;;;;5092359;28;20227;-59
2022/03/09 08:18:39;;;;;;;13.82;12.27;;;2.90;52.10;;;;;;5092484;28;20243;-59
2022/03/09 08:21:06;;;;;;;17.17;14.88;;;2.90;52.10;;;;;;5091150;28;20232;-59
2022/03/09 08:23:35;;;;;;;15.90;13.77;;;2.90;52.20;;;;;;5092531;28;20299;-59
2022/03/09 08:26:01;;;;;;;15.32;13.20;;;3.00;52.20;;;;;;5092473;28;20208;-59
2022/03/09 08:28:28;;;;;;;14.25;12.77;;;3.00;52.40;;;;;;5092401;28;20294;-59
2022/03/09 08:30:55;;;;;;;14.80;12.18;;;3.00;52.70;;;;;;5092012;28;20314;-58
2022/03/09 08:33:22;;;;;;;14.48;11.93;;;3.00;52.60;;;;;;5092475;28;20287;-59
2022/03/09 08:35:49;;;;;;;14.55;13.15;;;3.10;52.50;;;;;;5092390;28;20232;-59
2022/03/09 08:38:16;;;;;;;15.38;13.90;;;3.10;52.40;;;;;;5091044;28;20286;-59
2022/03/09 08:40:45;;;;;;;16.95;13.65;;;3.20;52.30;;;;;;5092410;28;20330;-59
2022/03/09 08:43:12;;;;;;;15.05;13.38;;;3.20;52.10;;;;;;5092259;28;20639;-59
2022/03/09 08:45:39;;;;;;;18.52;14.10;;;3.20;52.40;;;;;;5092122;28;20200;-59
2022/03/09 08:48:06;;;;;;;17.45;14.43;;;3.20;52.80;;;;;;5092225;28;20218;-59
2022/03/09 08:50:33;;;;;;;13.43;11.65;;;3.30;53.10;;;;;;5092133;28;20311;-59
2022/03/09 08:53:00;;;;;;;17.17;14.20;;;3.40;53.40;;;;;;5090925;28;20290;-59
2022/03/09 08:55:27;;;;;;;15.25;13.85;;;3.50;53.40;;;;;;5092250;28;20294;-59
2022/03/09 08:57:56;;;;;;;16.02;14.25;;;3.60;52.80;;;;;;5093857;28;20659;-59
2022/03/09 09:00:24;;;;;;;20.52;13.80;;;3.70;52.90;;;;;;5095608;28;20208;-59
2022/03/09 09:02:51;;;;;;;15.85;13.95;;;3.70;51.50;;;;;;5095762;28;20204;-59
2022/03/09 09:05:18;;;;;;;18.80;14.10;;;3.70;51.30;;;;;;5095483;28;20315;-59
2022/03/09 09:07:45;;;;;;;15.85;14.02;;;3.80;51.50;;;;;;5094289;28;20709;-59
2022/03/09 09:10:11;;;;;;;17.30;15.52;;;3.90;51.40;;;;;;5095431;28;20210;-58
2022/03/09 09:12:38;;;;;;;16.80;14.80;;;4.00;51.00;;;;;;5095372;28;20265;-59
2022/03/09 09:15:08;;;;;;;24.85;13.80;;;4.00;50.80;;;;;;5095457;28;20308;-60
2022/03/09 09:17:35;;;;;;;17.23;15.43;;;4.00;50.80;;;;;;5095440;28;20211;-59
2022/03/09 09:20:03;;;;;;;18.63;14.40;;;4.00;49.60;;;;;;5095379;28;20215;-60
2022/03/09 09:22:29;;;;;;;16.33;14.60;;;4.00;50.60;;;;;;5094067;28;20619;-58
2022/03/09 09:24:56;;;;;;;17.73;14.88;;;4.20;51.20;;;;;;5095128;28;20337;-58
2022/03/09 09:27:23;;;;;;;17.15;15.43;;;4.40;51.10;;;;;;5095299;28;20247;-58
2022/03/09 09:29:50;;;;;;;21.58;15.13;;;4.70;51.20;;;;;;5094929;28;20247;-58
2022/03/09 09:32:18;;;;;;;19.85;14.80;;;5.10;50.20;;;;;;5095102;28;20324;-59
2022/03/09 09:34:45;;;;;;;20.10;16.35;;;5.40;48.90;;;;;;5095070;28;20204;-59
2022/03/09 09:37:12;;;;;;;18.55;15.60;;;5.50;48.40;;;;;;5093798;28;20200;-59
2022/03/09 09:39:39;;;;;;;17.08;15.30;;;5.50;48.20;;;;;;5094886;28;20292;-58
2022/03/09 09:42:06;;;;;;;20.73;15.13;;;5.50;47.70;;;;;;5094984;28;20200;-59
2022/03/09 09:44:35;;;;;;;16.42;14.73;;;5.60;48.00;;;;;;5094885;28;20667;-58
2022/03/09 09:47:05;;;;;;;19.55;12.77;;;5.80;47.30;;;;;;5094692;28;20292;-59
2022/03/09 09:49:37;;;;;;;17.30;14.88;;;5.90;46.60;;;;;;5094801;28;20203;-58
2022/03/09 09:52:05;;;;;;;17.02;15.05;;;6.10;45.50;;;;;;5093260;28;20232;-59
2022/03/09 09:54:32;;;;;;;18.08;14.68;;;6.20;43.90;;;;;;5094694;28;20200;-59
2022/03/09 09:56:59;;;;;;;19.98;14.90;;;6.20;42.80;;;;;;5094665;28;20627;-59
2022/03/09 09:59:27;;;;;;;16.75;14.15;;;6.20;42.40;;;;;;5094471;28;20204;-59
2022/03/09 10:01:54;;;;;;;17.73;15.93;;;6.30;42.80;;;;;;5094415;28;20200;-58
2022/03/09 10:04:21;;;;;;;15.18;13.68;;;6.30;42.70;;;;;;5094320;28;20732;-58
2022/03/09 10:06:49;;;;;;;18.05;15.85;;;6.50;43.80;;;;;;5092964;28;20204;-59
2022/03/09 10:09:18;;;;;;;17.48;15.57;;;6.70;42.70;;;;;;5093468;28;20311;-59
2022/03/09 10:11:50;;;;;;;17.17;15.43;;;7.00;41.60;;;;;;5094359;28;20255;-59
2022/03/09 10:14:19;;;;;;;17.70;15.45;;;7.20;42.90;;;;;;5094282;28;20211;-59
2022/03/09 10:17:06;;;;;;;17.70;15.15;;;7.40;40.40;;;;;;5093957;28;20295;-59
2022/03/09 10:19:35;;;;;;;16.50;14.88;;;7.50;39.90;;;;;;5094203;28;20215;-58
2022/03/09 10:22:25;;;;;;;17.13;14.90;;;7.60;41.30;;;;;;5092868;28;20303;-59
2022/03/09 10:24:53;;;;;;;21.67;16.35;;;7.90;39.80;;;;;;5094234;28;20200;-59
2022/03/09 10:27:39;;;;;;;18.10;16.10;;;8.10;41.10;;;;;;5094147;28;20294;-60
2022/03/09 10:30:08;;;;;;;17.75;14.80;;;8.20;37.50;;;;;;5093804;28;20222;-59
2022/03/09 10:32:50;;;;;;;18.48;16.42;;;7.90;37.40;;;;;;5093814;28;20234;-57
2022/03/09 10:35:18;;;;;;;18.75;15.65;;;7.80;39.50;;;;;;5094023;28;20700;-59
2022/03/09 10:37:48;;;;;;;19.67;16.83;;;7.90;38.50;;;;;;5092545;28;20286;-59
2022/03/09 10:40:17;;;;;;;20.30;16.05;;;8.10;37.60;;;;;;5093618;28;20290;-59
2022/03/09 10:42:44;;;;;;;21.95;16.80;;;8.20;38.60;;;;;;5093810;28;20215;-59
2022/03/09 10:45:13;;;;;;;19.00;15.85;;;8.40;38.40;;;;;;5093646;28;20210;-59
2022/03/09 10:47:42;;;;;;;20.67;17.90;;;8.70;40.10;;;;;;5093702;28;20228;-59
2022/03/09 10:50:15;;;;;;;19.90;15.20;;;8.90;37.90;;;;;;5093650;28;20206;-59
2022/03/09 10:52:44;;;;;;;20.70;16.58;;;9.20;39.30;;;;;;5092109;28;20232;-59
2022/03/09 10:55:30;;;;;;;18.80;17.08;;;9.50;39.30;;;;;;5093510;28;20299;-59
2022/03/09 10:58:13;;;;;;;20.40;18.25;;;9.80;40.10;;;;;;5093421;28;20199;-59
2022/03/09 11:00:42;;;;;;;20.58;18.38;;;10.10;39.20;;;;;;5093376;28;20199;-59
2022/03/09 11:03:11;;;;;;;19.33;17.38;;;10.20;39.70;;;;;;5093293;28;20678;-59
2022/03/09 11:05:48;;;;;;;19.67;17.75;;;10.30;40.60;;;;;;5093194;28;20263;-59
2022/03/09 11:08:16;;;;;;;20.60;17.50;;;10.50;40.30;;;;;;5092009;28;20305;-59
2022/03/09 11:10:46;;;;;;;20.23;17.50;;;10.60;40.40;;;;;;5093418;28;20640;-59
2022/03/09 11:13:17;;;;;;;19.98;17.88;;;10.90;40.00;;;;;;5093188;28;20662;-59
2022/03/09 11:15:47;;;;;;;20.30;17.45;;;10.90;37.80;;;;;;5092838;28;20536;-59
2022/03/09 11:18:18;;;;;;;22.52;17.08;;;10.90;39.10;;;;;;5093171;28;20210;-58
2022/03/09 11:20:45;;;;;;;20.25;16.95;;;11.10;36.60;;;;;;5093034;28;20195;-59
2022/03/09 11:23:13;;;;;;;20.30;17.05;;;11.20;36.50;;;;;;5091774;28;20211;-58
2022/03/09 11:25:42;;;;;;;21.02;17.63;;;11.60;37.40;;;;;;5092994;28;20662;-58
2022/03/09 11:28:12;;;;;;;17.75;15.45;;;13.00;35.60;;;;;;5092855;28;20204;-61
2022/03/09 11:30:53;;;;;;;19.88;17.98;;;15.20;32.70;;;;;;5092942;28;20199;-61
2022/03/09 11:33:35;;;;;;;21.37;19.20;;;17.50;30.20;;;;;;5093101;28;20239;-61
2022/03/09 11:36:02;;;;;;;20.93;18.70;;;19.70;26.40;;;;;;5092036;28;20541;-59
2022/03/09 11:38:40;;;;;;;21.07;18.83;;;21.20;26.70;;;;;;5092767;28;20446;-59
2022/03/09 11:41:17;;;;;;;20.70;18.50;;;22.50;24.70;;;;;;5092871;28;20450;-59
2022/03/09 11:43:45;;;;;;;22.30;20.00;;;23.40;25.10;;;;;;5092855;28;20811;-59
2022/03/09 11:46:12;;;;;;;22.60;20.20;;;24.80;24.50;;;;;;5092646;28;20454;-60
2022/03/09 11:48:53;;;;;;;20.03;18.13;;;26.10;22.80;;;;;;5092823;28;20446;-59
2022/03/09 11:51:21;;;;;;;21.17;19.07;;;27.40;17.80;;;;;;5091397;28;20584;-59
2022/03/09 11:53:50;;;;;;;21.00;19.00;;;27.10;21.20;;;;;;5092666;28;20460;-60
2022/03/09 11:56:32;;;;;;;21.93;19.73;;;27.10;15.70;;;;;;5092740;28;20555;-59
2022/03/09 11:59:20;;;;;;;21.53;19.03;;;26.30;19.90;;;;;;5092648;28;20451;-59
2022/03/09 12:02:15;;;;;;;21.87;19.73;;;25.60;19.00;;;;;;5092577;28;20866;-59
2022/03/09 12:04:49;;;;;;;19.63;17.70;;;25.90;17.60;;;;;;5090806;28;20487;-59
2022/03/09 12:08:01;;;;;;;20.70;18.50;;;26.50;19.10;;;;;;5091153;28;20556;-60
2022/03/09 12:10:47;;;;;;;21.03;18.93;;;26.80;17.20;;;;;;5092655;28;20446;-59
2022/03/09 12:13:35;;;;;;;20.97;18.80;;;26.20;18.70;;;;;;5092475;28;20536;-59
2022/03/09 12:16:22;;;;;;;21.30;19.23;;;26.00;18.50;;;;;;5092274;28;20956;-59
2022/03/09 12:19:06;;;;;;;21.20;18.90;;;25.30;18.60;;;;;;5092507;28;20450;-60
2022/03/09 12:22:07;;;;;;;21.70;19.73;;;24.20;18.10;;;;;;5091074;28;20450;-60
2022/03/09 12:24:36;;;;;;;20.47;18.10;;;22.70;19.30;;;;;;5029849;28;20455;-59
2022/03/09 12:27:26;;;;;;;20.97;18.67;;;21.60;18.90;;;;;;5030039;28;20460;-60
2022/03/09 12:29:53;;;;;;;21.40;17.60;;;20.80;20.10;;;;;;5069058;28;20532;-59
2022/03/09 12:32:22;;;;;;;21.53;17.67;;;20.30;19.60;;;;;;5093191;28;20490;-59
2022/03/09 12:34:51;;;;;;;21.60;19.50;;;19.80;21.00;;;;;;5096157;28;20457;-59
2022/03/09 12:37:22;;;;;;;20.57;18.27;;;19.40;20.90;;;;;;5094986;28;20543;-59
2022/03/09 12:39:54;;;;;;;20.63;17.77;;;19.00;20.80;;;;;;5096086;28;20442;-59
2022/03/09 12:42:22;;;;;;;22.07;17.80;;;18.70;21.30;;;;;;5096046;28;20460;-60
2022/03/09 12:44:50;;;;;;;18.27;16.23;;;18.40;20.70;;;;;;5096227;28;20536;-59
2022/03/09 12:47:19;;;;;;;20.33;18.33;;;18.20;20.50;;;;;;5095803;28;20477;-59